createdAt,value
2017-04-20T00:00:37.182Z,15.35
2017-04-20T00:01:37.119Z,11.47
2017-04-20T00:02:37.517Z,12.33
2017-04-20T00:03:37.434Z,12.03
2017-04-20T00:04:37.467Z,16.87
2017-04-20T00:05:37.443Z,16.68
2017-04-20T00:06:37.427Z,12.13
2017-04-20T00:07:37.378Z,16.83
2017-04-20T00:08:38.391Z,11.23
2017-04-20T00:09:38.114Z,14.75
2017-04-20T00:10:37.860Z,11.67
2017-04-20T00:11:37.921Z,15.45
2017-04-20T00:12:38.693Z,14.52
2017-04-20T00:13:38.987Z,10.37
2017-04-20T00:14:39.068Z,12.32
2017-04-20T00:15:39.025Z,11.92
2017-04-20T00:16:39.014Z,12.03
2017-04-20T00:17:39.045Z,10.97
2017-04-20T00:18:39.359Z,13.22
2017-04-20T00:19:40.050Z,10.77
2017-04-20T00:20:40.171Z,13.55
2017-04-20T00:21:40.168Z,11.65
2017-04-20T00:22:40.151Z,12.85
2017-04-20T00:23:40.573Z,13.45
2017-04-20T00:24:40.525Z,12.55
2017-04-20T00:25:40.497Z,9.75
2017-04-20T00:26:40.450Z,11.27
2017-04-20T00:27:40.473Z,12.67
2017-04-20T00:28:40.849Z,12.27
2017-04-20T00:29:40.800Z,11.30
2017-04-20T00:30:40.491Z,10.27
2017-04-20T00:31:40.185Z,13.57
2017-04-20T00:32:40.607Z,13.25
2017-04-20T00:33:41.697Z,12.45
2017-04-20T00:34:41.613Z,16.75
2017-04-20T00:35:41.635Z,12.13
2017-04-20T00:36:41.604Z,10.58
2017-04-20T00:37:41.619Z,15.93
2017-04-20T00:38:41.932Z,11.38
2017-04-20T00:39:41.910Z,11.08
2017-04-20T00:40:41.856Z,15.28
2017-04-20T00:41:41.829Z,23.47
2017-04-20T00:42:41.801Z,16.72
2017-04-20T00:43:42.183Z,16.53
2017-04-20T00:44:42.092Z,13.75
2017-04-20T00:45:42.021Z,17.27
2017-04-20T00:46:46.120Z,13.97
2017-04-20T00:47:46.785Z,14.72
2017-04-20T00:48:47.112Z,13.50
2017-04-20T00:49:47.143Z,12.83
2017-04-20T00:50:48.135Z,13.02
2017-04-20T00:51:48.260Z,13.95
2017-04-20T00:52:49.925Z,16.25
2017-04-20T00:53:51.273Z,14.93
2017-04-20T00:54:51.247Z,12.63
2017-04-20T00:55:51.076Z,16.57
2017-04-20T00:56:51.071Z,17.65
2017-04-20T00:57:51.081Z,12.03
2017-04-20T00:58:51.372Z,17.57
2017-04-20T00:59:51.318Z,13.33
2017-04-20T01:00:52.067Z,16.02
2017-04-20T01:01:52.010Z,14.63
2017-04-20T01:02:52.231Z,14.95
2017-04-20T01:03:52.496Z,12.35
2017-04-20T01:04:52.502Z,10.83
2017-04-20T01:05:52.479Z,13.27
2017-04-20T01:06:52.478Z,11.70
2017-04-20T01:07:53.163Z,17.02
2017-04-20T01:08:53.476Z,12.40
2017-04-20T01:09:53.411Z,14.50
2017-04-20T01:10:53.433Z,12.95
2017-04-20T01:11:54.129Z,15.32
2017-04-20T01:12:54.172Z,11.98
2017-04-20T01:13:54.532Z,15.53
2017-04-20T01:14:54.446Z,11.93
2017-04-20T01:15:54.393Z,11.57
2017-04-20T01:16:54.354Z,10.25
2017-04-20T01:17:54.370Z,10.70
2017-04-20T01:18:54.768Z,10.25
2017-04-20T01:19:55.450Z,9.57
2017-04-20T01:20:55.526Z,10.53
2017-04-20T01:21:56.294Z,10.07
2017-04-20T01:22:56.259Z,12.43
2017-04-20T01:23:56.556Z,12.97
2017-04-20T01:24:56.594Z,10.85
2017-04-20T01:25:56.628Z,11.48
2017-04-20T01:26:56.565Z,17.77
2017-04-20T01:27:56.552Z,11.27
2017-04-20T01:28:56.880Z,8.17
2017-04-20T01:29:57.138Z,10.78
2017-04-20T01:30:57.287Z,9.67
2017-04-20T01:31:57.244Z,12.45
2017-04-20T01:32:58.038Z,13.28
2017-04-20T01:33:58.342Z,10.07
2017-04-20T01:34:58.092Z,10.28
2017-04-20T01:35:58.719Z,7.40
2017-04-20T01:36:58.691Z,10.17
2017-04-20T01:37:58.661Z,12.17
2017-04-20T01:38:58.991Z,8.58
2017-04-20T01:39:58.977Z,9.33
2017-04-20T01:40:58.896Z,9.70
2017-04-20T01:41:58.740Z,10.18
2017-04-20T01:42:59.461Z,8.77
2017-04-20T01:43:59.484Z,8.68
2017-04-20T01:44:59.447Z,10.00
2017-04-20T01:45:59.417Z,8.93
2017-04-20T01:46:59.405Z,13.52
2017-04-20T01:47:59.356Z,10.67
2017-04-20T01:49:02.803Z,11.07
2017-04-20T01:50:02.754Z,17.50
2017-04-20T01:51:02.706Z,12.73
2017-04-20T01:52:02.677Z,12.65
2017-04-20T01:53:02.636Z,9.67
2017-04-20T01:54:03.036Z,11.95
2017-04-20T01:55:02.949Z,11.87
2017-04-20T01:56:02.898Z,9.15
2017-04-20T01:57:03.437Z,11.08
2017-04-20T01:58:04.193Z,10.83
2017-04-20T01:59:04.554Z,9.32
2017-04-20T02:00:04.636Z,10.42
2017-04-20T02:01:04.489Z,11.67
2017-04-20T02:02:05.245Z,10.75
2017-04-20T02:03:05.253Z,12.32
2017-04-20T02:04:05.487Z,14.32
2017-04-20T02:05:05.458Z,9.67
2017-04-20T02:06:05.564Z,11.22
2017-04-20T02:07:05.519Z,11.45
2017-04-20T02:08:05.555Z,10.02
2017-04-20T02:09:06.800Z,10.75
2017-04-20T02:10:06.951Z,9.25
2017-04-20T02:11:06.898Z,10.02
2017-04-20T02:12:07.637Z,10.85
2017-04-20T02:13:07.653Z,9.07
2017-04-20T02:14:08.048Z,12.42
2017-04-20T02:15:08.815Z,9.37
2017-04-20T02:16:08.799Z,11.38
2017-04-20T02:17:08.807Z,11.03
2017-04-20T02:18:08.785Z,11.52
2017-04-20T02:19:09.804Z,10.02
2017-04-20T02:20:09.805Z,11.70
2017-04-20T02:21:09.758Z,9.92
2017-04-20T02:22:09.745Z,10.25
2017-04-20T02:23:14.620Z,8.62
2017-04-20T02:24:15.943Z,10.35
2017-04-20T02:25:15.930Z,11.48
2017-04-20T02:26:15.937Z,13.87
2017-04-20T02:27:16.665Z,15.63
2017-04-20T02:28:16.621Z,10.03
2017-04-20T02:29:17.017Z,9.95
2017-04-20T02:30:16.975Z,10.45
2017-04-20T02:31:16.922Z,9.78
2017-04-20T02:32:16.917Z,15.30
2017-04-20T02:33:16.865Z,8.93
2017-04-20T02:34:17.976Z,9.85
2017-04-20T02:35:17.960Z,11.70
2017-04-20T02:36:17.937Z,12.53
2017-04-20T02:37:18.864Z,10.17
2017-04-20T02:38:18.856Z,10.58
2017-04-20T02:39:19.071Z,10.42
2017-04-20T02:40:19.019Z,10.82
2017-04-20T02:41:18.756Z,11.35
2017-04-20T02:42:18.748Z,13.95
2017-04-20T02:43:18.530Z,11.30
2017-04-20T02:44:19.647Z,10.27
2017-04-20T02:45:19.669Z,10.33
2017-04-20T02:46:19.341Z,20.45
2017-04-20T02:47:19.152Z,13.50
2017-04-20T02:48:19.227Z,17.20
2017-04-20T02:49:19.592Z,16.23
2017-04-20T02:50:19.721Z,11.80
2017-04-20T02:51:19.669Z,11.48
2017-04-20T02:52:19.441Z,9.00
2017-04-20T02:53:20.120Z,11.38
2017-04-20T02:54:20.402Z,10.17
2017-04-20T02:55:20.412Z,9.65
2017-04-20T02:56:20.371Z,12.68
2017-04-20T02:57:20.319Z,15.13
2017-04-20T02:58:20.094Z,10.35
2017-04-20T02:59:19.993Z,9.90
2017-04-20T03:00:21.087Z,11.72
2017-04-20T03:01:21.085Z,12.85
2017-04-20T03:02:21.057Z,10.05
2017-04-20T03:03:21.145Z,9.67
2017-04-20T03:04:21.923Z,10.60
2017-04-20T03:05:22.240Z,10.45
2017-04-20T03:06:22.140Z,17.05
2017-04-20T03:07:22.111Z,27.25
2017-04-20T03:08:22.063Z,20.22
2017-04-20T03:09:22.225Z,12.35
2017-04-20T03:10:22.598Z,11.30
2017-04-20T03:11:22.668Z,10.45
2017-04-20T03:12:22.667Z,12.43
2017-04-20T03:13:22.605Z,29.12
2017-04-20T03:14:22.541Z,30.68
2017-04-20T03:15:23.633Z,31.12
2017-04-20T03:16:23.588Z,13.48
2017-04-20T03:17:23.618Z,12.92
2017-04-20T03:18:23.548Z,13.17
2017-04-20T03:19:23.470Z,12.78
2017-04-20T03:20:23.774Z,14.08
2017-04-20T03:21:23.802Z,13.18
2017-04-20T03:22:23.515Z,12.85
2017-04-20T03:23:24.690Z,16.18
2017-04-20T03:24:24.698Z,11.93
2017-04-20T03:25:24.935Z,11.75
2017-04-20T03:26:25.427Z,11.80
2017-04-20T03:27:25.169Z,10.95
2017-04-20T03:28:25.128Z,17.93
2017-04-20T03:29:25.085Z,10.80
2017-04-20T03:30:25.372Z,12.85
2017-04-20T03:31:25.321Z,15.50
2017-04-20T03:32:25.257Z,9.72
2017-04-20T03:33:25.225Z,9.28
2017-04-20T03:34:25.228Z,13.25
2017-04-20T03:35:25.550Z,10.30
2017-04-20T03:36:25.437Z,11.65
2017-04-20T03:37:26.133Z,10.83
2017-04-20T03:38:25.965Z,12.98
2017-04-20T03:39:26.000Z,13.00
2017-04-20T03:40:26.377Z,14.17
2017-04-20T03:41:27.108Z,14.20
2017-04-20T03:42:27.874Z,12.03
2017-04-20T03:43:27.839Z,11.73
2017-04-20T03:44:27.881Z,15.05
2017-04-20T03:45:28.191Z,15.58
2017-04-20T03:46:28.132Z,14.40
2017-04-20T03:47:28.132Z,13.80
2017-04-20T03:48:28.088Z,16.12
2017-04-20T03:49:28.097Z,14.23
2017-04-20T03:50:28.413Z,15.10
2017-04-20T03:51:28.378Z,14.15
2017-04-20T03:52:28.318Z,13.48
2017-04-20T03:53:28.256Z,17.30
2017-04-20T03:54:28.021Z,13.02
2017-04-20T03:55:28.393Z,20.73
2017-04-20T03:56:28.427Z,22.65
2017-04-20T03:57:29.164Z,16.20
2017-04-20T03:58:29.115Z,14.97
2017-04-20T03:59:29.130Z,13.52
2017-04-20T04:00:29.433Z,35.53
2017-04-20T04:01:29.409Z,31.90
2017-04-20T04:02:29.412Z,18.37
2017-04-20T04:03:29.405Z,17.03
2017-04-20T04:04:29.329Z,20.13
2017-04-20T04:05:29.692Z,15.67
2017-04-20T04:06:29.691Z,13.07
2017-04-20T04:07:29.752Z,15.92
2017-04-20T04:08:29.754Z,19.38
2017-04-20T04:09:29.673Z,19.75
2017-04-20T04:10:29.902Z,14.25
2017-04-20T04:11:29.804Z,25.02
2017-04-20T04:12:29.760Z,20.13
2017-04-20T04:13:29.694Z,17.87
2017-04-20T04:14:29.621Z,14.48
2017-04-20T04:15:29.958Z,17.92
2017-04-20T04:16:29.888Z,19.20
2017-04-20T04:17:29.822Z,15.03
2017-04-20T04:18:29.787Z,19.25
2017-04-20T04:19:30.956Z,16.72
2017-04-20T04:20:31.317Z,13.40
2017-04-20T04:21:31.290Z,20.42
2017-04-20T04:22:32.007Z,15.00
2017-04-20T04:23:31.952Z,15.30
2017-04-20T04:24:31.932Z,18.00
2017-04-20T04:25:32.248Z,15.57
2017-04-20T04:26:32.942Z,15.37
2017-04-20T04:27:33.018Z,15.83
2017-04-20T04:28:32.966Z,15.73
2017-04-20T04:29:32.956Z,15.23
2017-04-20T04:30:33.202Z,15.75
2017-04-20T04:31:33.044Z,17.98
2017-04-20T04:32:33.013Z,20.25
2017-04-20T04:33:33.057Z,15.38
2017-04-20T04:34:32.857Z,13.55
2017-04-20T04:35:33.967Z,16.92
2017-04-20T04:36:33.887Z,17.72
2017-04-20T04:37:34.655Z,17.45
2017-04-20T04:38:34.416Z,17.18
2017-04-20T04:39:34.384Z,16.50
2017-04-20T04:40:35.650Z,14.63
2017-04-20T04:41:36.331Z,20.27
2017-04-20T04:42:36.292Z,24.17
2017-04-20T04:43:36.322Z,27.53
2017-04-20T04:44:36.363Z,22.28
2017-04-20T04:45:36.693Z,19.82
2017-04-20T04:46:36.605Z,17.28
2017-04-20T04:47:37.328Z,15.25
2017-04-20T04:48:37.231Z,15.30
2017-04-20T04:49:37.971Z,13.95
2017-04-20T04:50:39.124Z,14.08
2017-04-20T04:51:39.132Z,15.37
2017-04-20T04:52:39.100Z,17.07
2017-04-20T04:53:39.901Z,15.72
2017-04-20T04:54:39.834Z,17.97
2017-04-20T04:55:40.946Z,16.55
2017-04-20T04:56:40.740Z,18.62
2017-04-20T04:57:40.760Z,13.18
2017-04-20T04:58:40.451Z,15.90
2017-04-20T04:59:40.230Z,18.03
2017-04-20T05:00:40.695Z,16.85
2017-04-20T05:01:40.667Z,13.83
2017-04-20T05:02:40.637Z,15.73
2017-04-20T05:03:40.647Z,16.30
2017-04-20T05:04:40.580Z,13.97
2017-04-20T05:05:40.908Z,13.57
2017-04-20T05:06:40.859Z,15.05
2017-04-20T05:07:40.928Z,10.97
2017-04-20T05:08:40.898Z,11.38
2017-04-20T05:09:40.894Z,12.48
2017-04-20T05:10:41.060Z,14.02
2017-04-20T05:11:41.785Z,12.90
2017-04-20T05:12:41.752Z,11.43
2017-04-20T05:13:42.438Z,13.08
2017-04-20T05:14:42.211Z,12.42
2017-04-20T05:15:43.241Z,15.48
2017-04-20T05:16:43.205Z,13.60
2017-04-20T05:17:43.168Z,14.32
2017-04-20T05:18:43.419Z,14.05
2017-04-20T05:19:43.363Z,17.72
2017-04-20T05:20:44.503Z,15.55
2017-04-20T05:21:45.289Z,15.12
2017-04-20T05:22:45.298Z,13.58
2017-04-20T05:23:45.238Z,13.45
2017-04-20T05:24:45.039Z,11.63
2017-04-20T05:25:45.415Z,20.42
2017-04-20T05:26:45.386Z,15.88
2017-04-20T05:27:45.156Z,14.78
2017-04-20T05:28:44.853Z,16.57
2017-04-20T05:29:45.614Z,15.45
2017-04-20T05:30:45.954Z,14.23
2017-04-20T05:31:45.955Z,17.65
2017-04-20T05:32:45.891Z,12.53
2017-04-20T05:33:45.909Z,19.58
2017-04-20T05:34:46.572Z,14.72
2017-04-20T05:35:46.842Z,18.98
2017-04-20T05:36:47.686Z,15.00
2017-04-20T05:37:47.656Z,16.33
2017-04-20T05:38:47.683Z,15.05
2017-04-20T05:39:47.600Z,15.65
2017-04-20T05:40:47.865Z,18.62
2017-04-20T05:41:47.905Z,15.72
2017-04-20T05:42:47.912Z,14.07
2017-04-20T05:43:47.943Z,16.87
2017-04-20T05:44:47.817Z,16.93
2017-04-20T05:45:48.866Z,20.40
2017-04-20T05:46:48.799Z,13.95
2017-04-20T05:47:48.776Z,24.65
2017-04-20T05:48:51.015Z,24.37
2017-04-20T05:49:51.054Z,19.97
2017-04-20T05:50:51.407Z,14.42
2017-04-20T05:51:51.437Z,13.75
2017-04-20T05:52:51.413Z,14.90
2017-04-20T05:53:51.495Z,15.07
2017-04-20T05:54:51.446Z,16.28
2017-04-20T05:55:51.775Z,20.70
2017-04-20T05:56:52.485Z,15.43
2017-04-20T05:57:53.206Z,16.15
2017-04-20T05:58:53.140Z,14.05
2017-04-20T05:59:53.114Z,21.05
2017-04-20T06:00:53.241Z,16.87
2017-04-20T06:01:53.261Z,17.82
2017-04-20T06:02:53.255Z,22.37
2017-04-20T06:03:52.953Z,15.20
2017-04-20T06:04:52.887Z,15.82
2017-04-20T06:05:53.227Z,19.60
2017-04-20T06:06:53.225Z,16.48
2017-04-20T06:07:53.161Z,14.72
2017-04-20T06:08:53.085Z,15.95
2017-04-20T06:09:53.761Z,18.22
2017-04-20T06:10:53.912Z,15.78
2017-04-20T06:11:54.739Z,15.35
2017-04-20T06:12:55.426Z,19.13
2017-04-20T06:13:55.398Z,16.27
2017-04-20T06:14:55.435Z,18.50
2017-04-20T06:15:55.830Z,16.97
2017-04-20T06:16:55.868Z,15.00
2017-04-20T06:17:55.903Z,15.52
2017-04-20T06:18:56.667Z,14.57
2017-04-20T06:19:57.451Z,16.15
2017-04-20T06:20:58.574Z,15.15
2017-04-20T06:21:59.309Z,14.88
2017-04-20T06:23:00.005Z,17.77
2017-04-20T06:23:59.989Z,13.33
2017-04-20T06:25:00.685Z,16.87
2017-04-20T06:26:00.888Z,13.53
2017-04-20T06:27:00.875Z,13.07
2017-04-20T06:28:01.560Z,14.93
2017-04-20T06:29:01.531Z,17.22
2017-04-20T06:30:01.517Z,15.22
2017-04-20T06:31:01.692Z,12.13
2017-04-20T06:32:01.863Z,13.78
2017-04-20T06:33:01.704Z,11.87
2017-04-20T06:34:01.686Z,15.00
2017-04-20T06:35:01.649Z,12.87
2017-04-20T06:36:01.761Z,15.45
2017-04-20T06:37:01.724Z,16.30
2017-04-20T06:38:01.687Z,13.90
2017-04-20T06:39:01.378Z,15.50
2017-04-20T06:40:01.340Z,13.62
2017-04-20T06:41:01.633Z,12.43
2017-04-20T06:42:01.615Z,15.47
2017-04-20T06:43:01.599Z,12.03
2017-04-20T06:44:01.582Z,18.02
2017-04-20T06:45:02.289Z,21.02
2017-04-20T06:46:02.517Z,13.62
2017-04-20T06:47:03.234Z,15.03
2017-04-20T06:48:03.967Z,16.60
2017-04-20T06:49:03.972Z,46.37
2017-04-20T06:50:03.963Z,43.13
2017-04-20T06:51:04.367Z,29.87
2017-04-20T06:52:04.364Z,20.12
2017-04-20T06:53:04.360Z,17.15
2017-04-20T06:54:04.102Z,18.55
2017-04-20T06:55:04.132Z,21.58
2017-04-20T06:56:04.504Z,21.87
2017-04-20T06:57:04.473Z,13.43
2017-04-20T06:58:04.427Z,16.55
2017-04-20T06:59:04.372Z,16.42
2017-04-20T07:00:04.440Z,17.33
2017-04-20T07:01:04.702Z,16.53
2017-04-20T07:02:04.465Z,13.02
2017-04-20T07:03:04.419Z,20.73
2017-04-20T07:04:04.429Z,25.20
2017-04-20T07:05:04.425Z,19.27
2017-04-20T07:06:04.601Z,13.97
2017-04-20T07:07:04.585Z,22.93
2017-04-20T07:08:04.553Z,22.08
2017-04-20T07:09:04.788Z,22.85
2017-04-20T07:10:04.778Z,29.23
2017-04-20T07:11:05.324Z,22.52
2017-04-20T07:12:05.454Z,18.03
2017-04-20T07:13:05.408Z,22.88
2017-04-20T07:14:05.390Z,23.58
2017-04-20T07:15:05.406Z,22.45
2017-04-20T07:16:06.061Z,37.73
2017-04-20T07:17:06.085Z,58.57
2017-04-20T07:18:06.843Z,75.88
2017-04-20T07:19:06.974Z,48.17
2017-04-20T07:20:06.979Z,22.02
2017-04-20T07:21:07.426Z,22.28
2017-04-20T07:22:07.363Z,28.57
2017-04-20T07:23:07.387Z,21.30
2017-04-20T07:24:07.389Z,24.38
2017-04-20T07:25:07.381Z,16.45
2017-04-20T07:26:07.780Z,18.02
2017-04-20T07:27:07.770Z,20.95
2017-04-20T07:28:07.760Z,19.25
2017-04-20T07:29:07.787Z,22.70
2017-04-20T07:30:08.487Z,17.97
2017-04-20T07:31:08.797Z,17.67
2017-04-20T07:32:08.778Z,13.68
2017-04-20T07:33:08.807Z,19.33
2017-04-20T07:34:08.814Z,28.40
2017-04-20T07:35:08.777Z,16.37
2017-04-20T07:36:08.914Z,15.92
2017-04-20T07:37:08.910Z,15.32
2017-04-20T07:38:08.913Z,15.52
2017-04-20T07:39:08.959Z,18.18
2017-04-20T07:40:08.792Z,17.53
2017-04-20T07:41:08.761Z,15.40
2017-04-20T07:42:08.883Z,15.93
2017-04-20T07:43:08.810Z,15.05
2017-04-20T07:44:08.822Z,16.23
2017-04-20T07:45:08.924Z,21.28
2017-04-20T07:46:08.899Z,19.10
2017-04-20T07:47:09.638Z,16.20
2017-04-20T07:48:09.696Z,22.78
2017-04-20T07:49:09.619Z,28.30
2017-04-20T07:50:09.622Z,18.77
2017-04-20T07:51:09.609Z,17.83
2017-04-20T07:52:09.889Z,16.35
2017-04-20T07:53:10.520Z,16.58
2017-04-20T07:54:10.466Z,14.33
2017-04-20T07:55:10.213Z,16.38
2017-04-20T07:56:10.216Z,21.78
2017-04-20T07:57:10.501Z,20.53
2017-04-20T07:58:10.468Z,17.57
2017-04-20T07:59:10.537Z,17.62
2017-04-20T08:00:11.261Z,16.00
2017-04-20T08:01:12.013Z,19.43
2017-04-20T08:02:12.239Z,18.00
2017-04-20T08:03:12.159Z,17.83
2017-04-20T08:04:12.125Z,14.53
2017-04-20T08:05:12.184Z,13.47
2017-04-20T08:06:12.162Z,17.02
2017-04-20T08:07:12.270Z,14.08
2017-04-20T08:08:12.342Z,17.62
2017-04-20T08:09:13.049Z,14.03
2017-04-20T08:10:13.085Z,12.35
2017-04-20T08:11:13.036Z,16.35
2017-04-20T08:12:13.353Z,10.92
2017-04-20T08:13:13.524Z,13.90
2017-04-20T08:14:13.488Z,11.78
2017-04-20T08:15:13.521Z,13.55
2017-04-20T08:16:13.253Z,15.23
2017-04-20T08:17:13.519Z,11.80
2017-04-20T08:18:13.594Z,11.00
2017-04-20T08:19:13.741Z,10.75
2017-04-20T08:20:14.515Z,12.45
2017-04-20T08:21:14.535Z,14.32
2017-04-20T08:22:14.865Z,14.42
2017-04-20T08:23:14.921Z,17.95
2017-04-20T08:24:14.941Z,12.00
2017-04-20T08:25:15.141Z,11.82
2017-04-20T08:26:15.109Z,13.32
2017-04-20T08:27:15.388Z,15.85
2017-04-20T08:28:15.397Z,13.98
2017-04-20T08:29:15.234Z,12.53
2017-04-20T08:30:16.086Z,12.57
2017-04-20T08:31:16.140Z,15.98
2017-04-20T08:32:16.477Z,11.65
2017-04-20T08:33:16.930Z,22.25
2017-04-20T08:34:17.005Z,13.78
2017-04-20T08:35:17.127Z,12.30
2017-04-20T08:36:17.192Z,12.85
2017-04-20T08:37:17.532Z,10.50
2017-04-20T08:38:18.341Z,11.87
2017-04-20T08:39:18.333Z,11.45
2017-04-20T08:40:18.952Z,10.95
2017-04-20T08:41:18.715Z,9.42
2017-04-20T08:42:19.098Z,13.87
2017-04-20T08:43:19.817Z,9.13
2017-04-20T08:44:19.866Z,10.78
2017-04-20T08:45:19.806Z,9.18
2017-04-20T08:46:20.198Z,10.53
2017-04-20T08:47:20.558Z,10.53
2017-04-20T08:48:20.596Z,9.40
2017-04-20T08:49:20.745Z,11.30
2017-04-20T08:50:20.821Z,11.00
2017-04-20T08:51:20.856Z,10.82
2017-04-20T08:52:21.282Z,10.80
2017-04-20T08:53:21.366Z,10.83
2017-04-20T08:54:21.398Z,11.75
2017-04-20T08:55:23.708Z,13.90
2017-04-20T08:56:24.568Z,8.78
2017-04-20T08:57:24.845Z,7.08
2017-04-20T08:59:55.884Z,10.30
2017-04-20T09:00:55.870Z,8.80
2017-04-20T09:01:55.847Z,8.50
2017-04-20T09:02:55.898Z,9.27
2017-04-20T09:03:55.912Z,6.97
2017-04-20T09:04:55.949Z,12.20
2017-04-20T09:05:55.886Z,7.92
2017-04-20T09:06:56.388Z,12.20
2017-04-20T09:07:57.284Z,14.83
2017-04-20T09:08:57.261Z,11.27
2017-04-20T09:09:57.378Z,10.32
2017-04-20T09:10:57.502Z,9.73
2017-04-20T09:11:58.082Z,13.32
2017-04-20T09:12:58.389Z,11.90
2017-04-20T09:13:58.427Z,10.25
2017-04-20T09:14:58.488Z,12.05
2017-04-20T09:15:58.422Z,9.42
2017-04-20T09:16:58.415Z,14.07
2017-04-20T09:17:59.486Z,9.88
2017-04-20T09:18:59.441Z,11.40
2017-04-20T09:19:59.434Z,9.12
2017-04-20T09:20:59.449Z,9.15
2017-04-20T09:21:59.429Z,11.27
2017-04-20T09:22:59.754Z,9.20
2017-04-20T09:23:59.734Z,9.65
2017-04-20T09:24:59.726Z,12.58
2017-04-20T09:26:04.772Z,10.38
2017-04-20T09:27:09.128Z,10.47
2017-04-20T09:28:10.254Z,11.05
2017-04-20T09:29:10.261Z,9.85
2017-04-20T09:30:10.239Z,12.12
2017-04-20T09:31:10.188Z,10.90
2017-04-20T09:32:10.150Z,8.43
2017-04-20T09:33:10.466Z,10.63
2017-04-20T09:34:10.456Z,10.03
2017-04-20T09:35:10.439Z,7.67
2017-04-20T09:36:10.378Z,11.25
2017-04-20T09:37:10.448Z,8.63
2017-04-20T09:38:10.626Z,8.53
2017-04-20T09:39:11.409Z,9.20
2017-04-20T09:40:11.130Z,9.55
2017-04-20T09:41:11.129Z,9.92
2017-04-20T09:42:11.164Z,9.17
2017-04-20T09:43:11.508Z,8.92
2017-04-20T09:44:11.494Z,9.45
2017-04-20T09:45:11.481Z,10.78
2017-04-20T09:46:12.218Z,20.60
2017-04-20T09:47:12.207Z,12.72
2017-04-20T09:48:12.488Z,20.72
2017-04-20T09:49:12.470Z,28.88
2017-04-20T09:50:12.432Z,21.48
2017-04-20T09:51:13.120Z,26.28
2017-04-20T09:52:13.074Z,24.70
2017-04-20T09:53:13.280Z,11.37
2017-04-20T09:54:13.282Z,17.75
2017-04-20T09:55:14.039Z,16.48
2017-04-20T09:56:14.081Z,13.30
2017-04-20T09:57:14.155Z,24.27
2017-04-20T09:58:14.498Z,26.22
2017-04-20T09:59:14.477Z,11.77
2017-04-20T10:00:14.569Z,15.10
2017-04-20T10:01:14.248Z,11.55
2017-04-20T10:02:14.051Z,7.93
2017-04-20T10:03:14.425Z,8.18
2017-04-20T10:04:14.198Z,9.62
2017-04-20T10:05:14.010Z,7.97
2017-04-20T10:06:13.829Z,8.88
2017-04-20T10:07:13.839Z,9.65
2017-04-20T10:08:14.166Z,10.25
2017-04-20T10:09:14.140Z,10.32
2017-04-20T10:10:14.158Z,11.38
2017-04-20T10:11:14.136Z,13.32
2017-04-20T10:12:14.124Z,9.53
2017-04-20T10:13:14.184Z,11.57
2017-04-20T10:14:14.964Z,10.77
2017-04-20T10:15:14.881Z,9.75
2017-04-20T10:16:14.884Z,10.68
2017-04-20T10:17:14.875Z,10.25
2017-04-20T10:18:15.225Z,10.27
2017-04-20T10:19:15.974Z,12.43
2017-04-20T10:20:15.937Z,10.10
2017-04-20T10:21:15.893Z,11.05
2017-04-20T10:22:16.544Z,11.53
2017-04-20T10:23:16.858Z,14.37
2017-04-20T10:24:16.806Z,13.55
2017-04-20T10:25:17.654Z,9.17
2017-04-20T10:26:17.419Z,9.55
2017-04-20T10:27:17.373Z,10.20
2017-04-20T10:28:18.379Z,13.90
2017-04-20T10:29:18.395Z,11.47
2017-04-20T10:30:18.417Z,13.07
2017-04-20T10:31:19.138Z,10.35
2017-04-20T10:32:19.859Z,10.05
2017-04-20T10:33:20.865Z,15.97
2017-04-20T10:34:20.820Z,10.70
2017-04-20T10:35:20.769Z,9.42
2017-04-20T10:36:20.710Z,11.87
2017-04-20T10:37:20.815Z,11.45
2017-04-20T10:38:21.897Z,13.28
2017-04-20T10:39:21.914Z,13.00
2017-04-20T10:40:21.929Z,15.43
2017-04-20T10:41:21.937Z,17.42
2017-04-20T10:42:21.886Z,13.07
2017-04-20T10:43:22.021Z,11.67
2017-04-20T10:44:21.958Z,16.17
2017-04-20T10:45:21.923Z,12.27
2017-04-20T10:46:21.894Z,14.95
2017-04-20T10:47:22.015Z,12.40
2017-04-20T10:48:22.387Z,14.77
2017-04-20T10:49:22.358Z,12.33
2017-04-20T10:50:22.338Z,10.40
2017-04-20T10:51:22.328Z,15.47
2017-04-20T10:52:23.006Z,12.53
2017-04-20T10:53:23.063Z,9.93
2017-04-20T10:54:23.684Z,10.75
2017-04-20T10:55:23.757Z,11.80
2017-04-20T10:56:23.736Z,10.82
2017-04-20T10:57:23.737Z,10.50
2017-04-20T10:58:23.866Z,12.00
2017-04-20T10:59:23.874Z,14.47
2017-04-20T11:00:23.859Z,10.35
2017-04-20T11:01:23.866Z,8.93
2017-04-20T11:02:23.904Z,32.60
2017-04-20T11:03:24.122Z,14.82
2017-04-20T11:04:24.149Z,8.35
2017-04-20T11:05:24.117Z,9.57
2017-04-20T11:06:24.148Z,7.52
2017-04-20T11:07:24.147Z,8.48
2017-04-20T11:08:24.584Z,9.30
2017-04-20T11:09:24.713Z,7.52
2017-04-20T11:10:24.680Z,10.93
2017-04-20T11:11:24.652Z,9.32
2017-04-20T11:12:24.580Z,10.28
2017-04-20T11:13:24.882Z,9.25
2017-04-20T11:14:25.569Z,9.50
2017-04-20T11:15:25.584Z,9.40
2017-04-20T11:16:25.580Z,9.07
2017-04-20T11:17:25.283Z,11.37
2017-04-20T11:18:25.263Z,9.85
2017-04-20T11:19:26.511Z,16.28
2017-04-20T11:20:26.467Z,9.27
2017-04-20T11:21:26.200Z,8.92
2017-04-20T11:22:26.225Z,11.42
2017-04-20T11:23:26.392Z,11.55
2017-04-20T11:24:26.402Z,10.62
2017-04-20T11:25:26.374Z,10.57
2017-04-20T11:26:26.364Z,8.45
2017-04-20T11:27:27.079Z,10.77
2017-04-20T11:28:27.303Z,11.47
2017-04-20T11:29:28.035Z,8.45
2017-04-20T11:30:28.029Z,11.05
2017-04-20T11:31:28.020Z,9.65
2017-04-20T11:32:28.029Z,13.65
2017-04-20T11:33:28.198Z,9.05
2017-04-20T11:34:28.119Z,10.22
2017-04-20T11:35:28.873Z,10.77
2017-04-20T11:36:29.448Z,9.22
2017-04-20T11:37:30.182Z,12.40
2017-04-20T11:38:31.172Z,7.35
2017-04-20T11:39:31.196Z,12.48
2017-04-20T11:40:31.131Z,9.82
2017-04-20T11:41:31.290Z,10.78
2017-04-20T11:42:31.316Z,10.77
2017-04-20T11:43:31.590Z,9.78
2017-04-20T11:44:31.889Z,10.73
2017-04-20T11:45:31.912Z,9.33
2017-04-20T11:46:31.967Z,10.72
2017-04-20T11:47:31.928Z,7.68
2017-04-20T11:48:32.792Z,10.30
2017-04-20T11:49:32.752Z,9.23
2017-04-20T11:50:32.832Z,8.97
2017-04-20T11:51:32.798Z,8.03
2017-04-20T11:52:32.781Z,8.82
2017-04-20T11:53:33.344Z,10.48
2017-04-20T11:54:33.341Z,8.00
2017-04-20T11:55:33.318Z,9.90
2017-04-20T11:56:33.335Z,9.68
2017-04-20T11:57:34.562Z,7.87
2017-04-20T11:58:34.991Z,11.12
2017-04-20T11:59:35.002Z,9.97
2017-04-20T12:00:35.014Z,10.27
2017-04-20T12:01:34.696Z,8.23
2017-04-20T12:02:35.392Z,9.53
2017-04-20T12:03:35.469Z,8.68
2017-04-20T12:04:35.574Z,8.43
2017-04-20T12:05:36.348Z,8.67
2017-04-20T12:06:36.457Z,9.47
2017-04-20T12:07:36.483Z,5.80
2017-04-20T12:08:37.715Z,8.90
2017-04-20T12:09:38.044Z,9.87
2017-04-20T12:10:38.113Z,9.63
2017-04-20T12:11:38.130Z,12.30
2017-04-20T12:12:38.290Z,11.07
2017-04-20T12:13:38.426Z,9.00
2017-04-20T12:14:38.406Z,9.68
2017-04-20T12:15:38.389Z,11.68
2017-04-20T12:16:38.344Z,9.45
2017-04-20T12:17:38.348Z,9.80
2017-04-20T12:18:38.731Z,7.77
2017-04-20T12:19:38.762Z,8.37
2017-04-20T12:20:38.784Z,7.88
2017-04-20T12:21:38.767Z,10.43
2017-04-20T12:22:38.726Z,9.12
2017-04-20T12:23:39.130Z,7.15
2017-04-20T12:24:39.150Z,7.08
2017-04-20T12:25:38.910Z,8.68
2017-04-20T12:26:38.980Z,10.25
2017-04-20T12:27:39.746Z,8.65
2017-04-20T12:28:40.044Z,8.73
2017-04-20T12:29:40.103Z,10.33
2017-04-20T12:30:40.105Z,7.73
2017-04-20T12:31:39.807Z,9.15
2017-04-20T12:32:39.882Z,8.03
2017-04-20T12:33:40.222Z,7.65
2017-04-20T12:34:40.252Z,11.98
2017-04-20T12:35:41.009Z,8.80
2017-04-20T12:36:40.987Z,8.53
2017-04-20T12:37:41.777Z,12.92
2017-04-20T12:38:41.945Z,8.02
2017-04-20T12:39:42.804Z,7.83
2017-04-20T12:40:42.709Z,9.30
2017-04-20T12:41:42.735Z,8.65
2017-04-20T12:42:42.805Z,9.92
2017-04-20T12:43:42.901Z,13.65
2017-04-20T12:44:42.786Z,10.22
2017-04-20T12:45:42.770Z,8.83
2017-04-20T12:46:42.801Z,13.40
2017-04-20T12:47:42.835Z,9.93
2017-04-20T12:48:43.113Z,7.42
2017-04-20T12:49:43.214Z,8.63
2017-04-20T12:50:43.193Z,7.15
2017-04-20T12:51:43.234Z,8.97
2017-04-20T12:52:43.318Z,8.93
2017-04-20T12:53:43.692Z,13.58
2017-04-20T12:54:43.854Z,7.92
2017-04-20T12:55:43.833Z,8.90
2017-04-20T12:56:43.775Z,8.67
2017-04-20T12:57:43.811Z,12.12
2017-04-20T12:58:43.956Z,10.52
2017-04-20T12:59:43.886Z,10.53
2017-04-20T13:00:43.992Z,10.00
2017-04-20T13:01:44.091Z,9.78